sensor_id;sensor_type;location;lat;lon;timestamp;pressure;altitude;pressure_sealevel;temperature;humidity
19748;BME280;10032;51.386;12.516;2023-06-19T00:01:06;99902.84;;;19.83;88.33
19748;BME280;10032;51.386;12.516;2023-06-19T00:03:31;99900.53;;;19.76;88.76
19748;BME280;10032;51.386;12.516;2023-06-19T00:05:57;99902.63;;;19.71;89.05
19748;BME280;10032;51.386;12.516;2023-06-19T00:08:22;99901.63;;;19.67;89.29
19748;BME280;10032;51.386;12.516;2023-06-19T00:10:47;99914.06;;;19.64;90.20
19748;BME280;10032;51.386;12.516;2023-06-19T00:13:13;99914.31;;;19.54;90.89
19748;BME280;10032;51.386;12.516;2023-06-19T00:15:39;99902.34;;;19.50;91.31
19748;BME280;10032;51.386;12.516;2023-06-19T00:18:04;99913.47;;;19.45;91.71
19748;BME280;10032;51.386;12.516;2023-06-19T00:20:32;99909.09;;;19.44;92.51
19748;BME280;10032;51.386;12.516;2023-06-19T00:22:57;99902.63;;;19.40;92.89
19748;BME280;10032;51.386;12.516;2023-06-19T00:25:22;99911.97;;;19.39;92.75
19748;BME280;10032;51.386;12.516;2023-06-19T00:27:48;99903.84;;;19.34;92.88
19748;BME280;10032;51.386;12.516;2023-06-19T00:30:14;99906.09;;;19.32;93.00
19748;BME280;10032;51.386;12.516;2023-06-19T00:32:40;99909.97;;;19.31;93.36
19748;BME280;10032;51.386;12.516;2023-06-19T00:35:18;99910.59;;;19.28;93.70
19748;BME280;10032;51.386;12.516;2023-06-19T00:37:44;99903.47;;;19.27;94.08
19748;BME280;10032;51.386;12.516;2023-06-19T00:40:19;99902.69;;;19.27;94.48
19748;BME280;10032;51.386;12.516;2023-06-19T00:42:46;99903.00;;;19.25;94.85
19748;BME280;10032;51.386;12.516;2023-06-19T00:45:12;99893.63;;;19.26;95.15
19748;BME280;10032;51.386;12.516;2023-06-19T00:47:37;99897.50;;;19.25;96.00
19748;BME280;10032;51.386;12.516;2023-06-19T00:50:03;99900.53;;;19.24;96.02
19748;BME280;10032;51.386;12.516;2023-06-19T00:52:28;99893.13;;;19.24;96.16
19748;BME280;10032;51.386;12.516;2023-06-19T00:54:54;99895.22;;;19.27;96.03
19748;BME280;10032;51.386;12.516;2023-06-19T00:57:19;99892.47;;;19.27;96.38
19748;BME280;10032;51.386;12.516;2023-06-19T00:59:45;99884.88;;;19.24;97.10
19748;BME280;10032;51.386;12.516;2023-06-19T01:02:10;99881.31;;;19.24;97.93
19748;BME280;10032;51.386;12.516;2023-06-19T01:04:36;99873.56;;;19.26;97.16
19748;BME280;10032;51.386;12.516;2023-06-19T01:07:12;99871.31;;;19.28;96.67
19748;BME280;10032;51.386;12.516;2023-06-19T01:09:53;99871.03;;;19.29;96.73
19748;BME280;10032;51.386;12.516;2023-06-19T01:12:24;99862.78;;;19.29;97.44
19748;BME280;10032;51.386;12.516;2023-06-19T01:15:00;99860.03;;;19.29;96.77
19748;BME280;10032;51.386;12.516;2023-06-19T01:17:29;99862.13;;;19.32;96.84
19748;BME280;10032;51.386;12.516;2023-06-19T01:19:59;99861.34;;;19.32;96.59
19748;BME280;10032;51.386;12.516;2023-06-19T01:22:28;99864.88;;;19.32;96.67
19748;BME280;10032;51.386;12.516;2023-06-19T01:24:54;99858.25;;;19.33;96.61
19748;BME280;10032;51.386;12.516;2023-06-19T01:27:20;99853.59;;;19.34;97.19
19748;BME280;10032;51.386;12.516;2023-06-19T01:29:46;99859.09;;;19.34;97.98
19748;BME280;10032;51.386;12.516;2023-06-19T01:32:21;99847.25;;;19.33;96.89
19748;BME280;10032;51.386;12.516;2023-06-19T01:34:50;99859.09;;;19.34;97.80
19748;BME280;10032;51.386;12.516;2023-06-19T01:37:18;99859.88;;;19.34;98.89
19748;BME280;10032;51.386;12.516;2023-06-19T01:39:44;99848.56;;;19.36;98.39
19748;BME280;10032;51.386;12.516;2023-06-19T01:42:11;99853.75;;;19.37;97.95
19748;BME280;10032;51.386;12.516;2023-06-19T01:44:38;99840.34;;;19.36;98.15
19748;BME280;10032;51.386;12.516;2023-06-19T01:47:10;99845.03;;;19.35;97.94
19748;BME280;10032;51.386;12.516;2023-06-19T01:49:37;99845.03;;;19.35;98.67
19748;BME280;10032;51.386;12.516;2023-06-19T01:52:02;99836.16;;;19.38;98.18
19748;BME280;10032;51.386;12.516;2023-06-19T01:54:28;99834.84;;;19.36;98.04
19748;BME280;10032;51.386;12.516;2023-06-19T01:56:53;99834.53;;;19.37;98.69
19748;BME280;10032;51.386;12.516;2023-06-19T01:59:19;99830.16;;;19.36;97.79
19748;BME280;10032;51.386;12.516;2023-06-19T02:01:44;99823.06;;;19.35;99.07
19748;BME280;10032;51.386;12.516;2023-06-19T02:04:10;99823.66;;;19.32;99.34
19748;BME280;10032;51.386;12.516;2023-06-19T02:06:35;99826.72;;;19.31;99.08
19748;BME280;10032;51.386;12.516;2023-06-19T02:09:00;99827.06;;;19.29;98.90
19748;BME280;10032;51.386;12.516;2023-06-19T02:11:26;99824.09;;;19.26;98.65
19748;BME280;10032;51.386;12.516;2023-06-19T02:13:51;99820.88;;;19.24;98.65
19748;BME280;10032;51.386;12.516;2023-06-19T02:16:17;99820.38;;;19.22;100.00
19748;BME280;10032;51.386;12.516;2023-06-19T02:18:43;99813.88;;;19.18;100.00
19748;BME280;10032;51.386;12.516;2023-06-19T02:21:08;99815.59;;;19.14;99.83
19748;BME280;10032;51.386;12.516;2023-06-19T02:23:34;99809.63;;;19.12;99.94
19748;BME280;10032;51.386;12.516;2023-06-19T02:25:59;99816.56;;;19.09;100.00
19748;BME280;10032;51.386;12.516;2023-06-19T02:28:24;99819.91;;;19.06;100.00
19748;BME280;10032;51.386;12.516;2023-06-19T02:30:52;99818.13;;;19.02;100.00
19748;BME280;10032;51.386;12.516;2023-06-19T02:33:17;99820.69;;;18.98;100.00
19748;BME280;10032;51.386;12.516;2023-06-19T02:35:42;99813.69;;;18.92;100.00
19748;BME280;10032;51.386;12.516;2023-06-19T02:38:09;99816.56;;;18.87;100.00
19748;BME280;10032;51.386;12.516;2023-06-19T02:40:35;99814.75;;;18.83;100.00
19748;BME280;10032;51.386;12.516;2023-06-19T02:43:00;99825.53;;;18.79;100.00
19748;BME280;10032;51.386;12.516;2023-06-19T02:45:25;99823.91;;;18.78;100.00
19748;BME280;10032;51.386;12.516;2023-06-19T02:47:51;99828.41;;;18.74;100.00
19748;BME280;10032;51.386;12.516;2023-06-19T02:50:17;99820.47;;;18.73;100.00
19748;BME280;10032;51.386;12.516;2023-06-19T02:52:42;99814.00;;;18.69;100.00
19748;BME280;10032;51.386;12.516;2023-06-19T02:55:08;99810.75;;;18.67;100.00
19748;BME280;10032;51.386;12.516;2023-06-19T02:57:33;99818.19;;;18.66;100.00
19748;BME280;10032;51.386;12.516;2023-06-19T02:59:59;99809.13;;;18.66;100.00
19748;BME280;10032;51.386;12.516;2023-06-19T03:02:24;99806.97;;;18.63;100.00
19748;BME280;10032;51.386;12.516;2023-06-19T03:04:51;99803.44;;;18.62;100.00
19748;BME280;10032;51.386;12.516;2023-06-19T03:07:17;99806.19;;;18.62;100.00
19748;BME280;10032;51.386;12.516;2023-06-19T03:09:42;99806.97;;;18.63;100.00
19748;BME280;10032;51.386;12.516;2023-06-19T03:12:08;99807.63;;;18.60;100.00
19748;BME280;10032;51.386;12.516;2023-06-19T03:14:34;99805.38;;;18.62;100.00
19748;BME280;10032;51.386;12.516;2023-06-19T03:16:59;99804.56;;;18.61;100.00
19748;BME280;10032;51.386;12.516;2023-06-19T03:19:25;99797.97;;;18.62;100.00
19748;BME280;10032;51.386;12.516;2023-06-19T03:21:50;99806.97;;;18.63;100.00
19748;BME280;10032;51.386;12.516;2023-06-19T03:24:16;99820.72;;;18.63;100.00
19748;BME280;10032;51.386;12.516;2023-06-19T03:26:41;99818.78;;;18.63;100.00
19748;BME280;10032;51.386;12.516;2023-06-19T03:29:07;99818.28;;;18.61;100.00
19748;BME280;10032;51.386;12.516;2023-06-19T03:31:32;99823.16;;;18.64;100.00
19748;BME280;10032;51.386;12.516;2023-06-19T03:33:58;99813.28;;;18.63;100.00
19748;BME280;10032;51.386;12.516;2023-06-19T03:36:23;99808.31;;;18.65;100.00
19748;BME280;10032;51.386;12.516;2023-06-19T03:38:48;99816.22;;;18.67;100.00
19748;BME280;10032;51.386;12.516;2023-06-19T03:41:14;99806.88;;;18.68;100.00
19748;BME280;10032;51.386;12.516;2023-06-19T03:43:39;99805.66;;;18.74;100.00
19748;BME280;10032;51.386;12.516;2023-06-19T03:46:05;99815.69;;;18.78;100.00
19748;BME280;10032;51.386;12.516;2023-06-19T03:48:30;99806.81;;;18.81;100.00
19748;BME280;10032;51.386;12.516;2023-06-19T03:50:56;99804.59;;;18.83;100.00
19748;BME280;10032;51.386;12.516;2023-06-19T03:53:21;99810.13;;;18.92;100.00
19748;BME280;10032;51.386;12.516;2023-06-19T03:55:47;99815.19;;;18.98;100.00
19748;BME280;10032;51.386;12.516;2023-06-19T03:58:12;99815.88;;;19.04;100.00
19748;BME280;10032;51.386;12.516;2023-06-19T04:00:38;99827.03;;;19.07;100.00
19748;BME280;10032;51.386;12.516;2023-06-19T04:03:04;99824.16;;;19.12;100.00
19748;BME280;10032;51.386;12.516;2023-06-19T04:05:29;99829.03;;;19.15;100.00
19748;BME280;10032;51.386;12.516;2023-06-19T04:07:54;99823.72;;;19.19;100.00
19748;BME280;10032;51.386;12.516;2023-06-19T04:10:20;99826.69;;;19.22;100.00
19748;BME280;10032;51.386;12.516;2023-06-19T04:12:47;99815.06;;;19.25;100.00
19748;BME280;10032;51.386;12.516;2023-06-19T04:15:12;99818.81;;;19.29;100.00
19748;BME280;10032;51.386;12.516;2023-06-19T04:17:38;99812.69;;;19.32;100.00
19748;BME280;10032;51.386;12.516;2023-06-19T04:20:04;99815.72;;;19.31;100.00
19748;BME280;10032;51.386;12.516;2023-06-19T04:22:40;99823.66;;;19.32;100.00
19748;BME280;10032;51.386;12.516;2023-06-19T04:25:09;99820.16;;;19.40;100.00
19748;BME280;10032;51.386;12.516;2023-06-19T04:27:36;99822.78;;;19.45;100.00
19748;BME280;10032;51.386;12.516;2023-06-19T04:30:03;99821.53;;;19.51;100.00
19748;BME280;10032;51.386;12.516;2023-06-19T04:32:29;99830.25;;;19.53;100.00
19748;BME280;10032;51.386;12.516;2023-06-19T04:34:55;99827.97;;;19.55;100.00
19748;BME280;10032;51.386;12.516;2023-06-19T04:37:20;99822.47;;;19.55;100.00
19748;BME280;10032;51.386;12.516;2023-06-19T04:39:46;99820.72;;;19.59;100.00
19748;BME280;10032;51.386;12.516;2023-06-19T04:42:16;99820.41;;;19.61;100.00
19748;BME280;10032;51.386;12.516;2023-06-19T04:44:48;99831.41;;;19.61;100.00
19748;BME280;10032;51.386;12.516;2023-06-19T04:47:17;99821.72;;;19.63;100.00
19748;BME280;10032;51.386;12.516;2023-06-19T04:49:43;99824.66;;;19.67;100.00
19748;BME280;10032;51.386;12.516;2023-06-19T04:52:08;99830.19;;;19.75;100.00
19748;BME280;10032;51.386;12.516;2023-06-19T04:54:34;99828.44;;;19.79;100.00
19748;BME280;10032;51.386;12.516;2023-06-19T04:56:59;99831.50;;;19.86;100.00
19748;BME280;10032;51.386;12.516;2023-06-19T04:59:25;99826.38;;;19.93;100.00
19748;BME280;10032;51.386;12.516;2023-06-19T05:01:51;99833.22;;;20.04;100.00
19748;BME280;10032;51.386;12.516;2023-06-19T05:04:20;99829.53;;;20.17;100.00
19748;BME280;10032;51.386;12.516;2023-06-19T05:06:45;99834.91;;;20.31;100.00
19748;BME280;10032;51.386;12.516;2023-06-19T05:09:11;99830.41;;;20.43;100.00
19748;BME280;10032;51.386;12.516;2023-06-19T05:11:36;99830.56;;;20.55;100.00
19748;BME280;10032;51.386;12.516;2023-06-19T05:14:02;99829.78;;;20.63;100.00
19748;BME280;10032;51.386;12.516;2023-06-19T05:16:28;99823.94;;;20.73;100.00
19748;BME280;10032;51.386;12.516;2023-06-19T05:18:53;99834.13;;;20.81;100.00
19748;BME280;10032;51.386;12.516;2023-06-19T05:21:19;99835.78;;;20.82;100.00
19748;BME280;10032;51.386;12.516;2023-06-19T05:23:44;99834.34;;;20.85;100.00
19748;BME280;10032;51.386;12.516;2023-06-19T05:26:12;99837.41;;;20.83;100.00
19748;BME280;10032;51.386;12.516;2023-06-19T05:28:39;99837.75;;;20.90;100.00
19748;BME280;10032;51.386;12.516;2023-06-19T05:31:04;99837.91;;;20.94;100.00
19748;BME280;10032;51.386;12.516;2023-06-19T05:33:29;99836.75;;;20.95;100.00
19748;BME280;10032;51.386;12.516;2023-06-19T05:35:55;99833.69;;;20.96;100.00
19748;BME280;10032;51.386;12.516;2023-06-19T05:38:21;99832.22;;;20.99;100.00
19748;BME280;10032;51.386;12.516;2023-06-19T05:40:48;99833.03;;;20.99;100.00
19748;BME280;10032;51.386;12.516;2023-06-19T05:43:15;99839.84;;;21.02;100.00
19748;BME280;10032;51.386;12.516;2023-06-19T05:45:40;99834.50;;;21.05;100.00
19748;BME280;10032;51.386;12.516;2023-06-19T05:48:06;99840.16;;;21.09;100.00
19748;BME280;10032;51.386;12.516;2023-06-19T05:50:31;99847.78;;;21.12;100.00
19748;BME280;10032;51.386;12.516;2023-06-19T05:52:56;99848.41;;;21.17;100.00
19748;BME280;10032;51.386;12.516;2023-06-19T05:55:22;99850.84;;;21.19;100.00
19748;BME280;10032;51.386;12.516;2023-06-19T05:57:50;99846.63;;;21.21;100.00
19748;BME280;10032;51.386;12.516;2023-06-19T06:00:16;99852.63;;;21.23;100.00
19748;BME280;10032;51.386;12.516;2023-06-19T06:02:41;99850.34;;;21.25;100.00
19748;BME280;10032;51.386;12.516;2023-06-19T06:05:07;99848.06;;;21.27;100.00
19748;BME280;10032;51.386;12.516;2023-06-19T06:07:34;99847.44;;;21.30;100.00
19748;BME280;10032;51.386;12.516;2023-06-19T06:09:59;99850.19;;;21.30;100.00
19748;BME280;10032;51.386;12.516;2023-06-19T06:12:25;99857.63;;;21.30;100.00
19748;BME280;10032;51.386;12.516;2023-06-19T06:14:50;99859.41;;;21.34;100.00
19748;BME280;10032;51.386;12.516;2023-06-19T06:17:15;99866.56;;;21.35;100.00
19748;BME280;10032;51.386;12.516;2023-06-19T06:19:41;99852.44;;;21.37;100.00
19748;BME280;10032;51.386;12.516;2023-06-19T06:22:06;99862.00;;;21.39;100.00
19748;BME280;10032;51.386;12.516;2023-06-19T06:24:32;99873.16;;;21.43;100.00
19748;BME280;10032;51.386;12.516;2023-06-19T06:26:57;99872.66;;;21.49;100.00
19748;BME280;10032;51.386;12.516;2023-06-19T06:29:24;99876.41;;;21.53;100.00
19748;BME280;10032;51.386;12.516;2023-06-19T06:31:49;99876.22;;;21.58;100.00
19748;BME280;10032;51.386;12.516;2023-06-19T06:34:18;99879.47;;;21.60;100.00
19748;BME280;10032;51.386;12.516;2023-06-19T06:36:44;99870.06;;;21.61;100.00
19748;BME280;10032;51.386;12.516;2023-06-19T06:39:09;99877.19;;;21.62;100.00
19748;BME280;10032;51.386;12.516;2023-06-19T06:41:36;99881.09;;;21.61;100.00
19748;BME280;10032;51.386;12.516;2023-06-19T06:44:01;99881.09;;;21.61;100.00
19748;BME280;10032;51.386;12.516;2023-06-19T06:46:27;99881.88;;;21.62;100.00
19748;BME280;10032;51.386;12.516;2023-06-19T06:48:52;99882.56;;;21.59;100.00
19748;BME280;10032;51.386;12.516;2023-06-19T06:51:18;99885.66;;;21.57;100.00
19748;BME280;10032;51.386;12.516;2023-06-19T06:53:43;99891.94;;;21.58;100.00
19748;BME280;10032;51.386;12.516;2023-06-19T06:56:09;99889.03;;;21.54;100.00
19748;BME280;10032;51.386;12.516;2023-06-19T06:58:34;99896.34;;;21.50;100.00
19748;BME280;10032;51.386;12.516;2023-06-19T07:00:59;99889.22;;;21.49;100.00
19748;BME280;10032;51.386;12.516;2023-06-19T07:03:25;99887.63;;;21.40;100.00
19748;BME280;10032;51.386;12.516;2023-06-19T07:05:50;99895.59;;;21.33;100.00
19748;BME280;10032;51.386;12.516;2023-06-19T07:08:16;99896.88;;;21.27;100.00
19748;BME280;10032;51.386;12.516;2023-06-19T07:10:41;99916.16;;;21.27;100.00
19748;BME280;10032;51.386;12.516;2023-06-19T07:13:06;99921.34;;;21.28;100.00
19748;BME280;10032;51.386;12.516;2023-06-19T07:15:32;99916.97;;;21.27;100.00
19748;BME280;10032;51.386;12.516;2023-06-19T07:17:57;99914.88;;;21.24;100.00
19748;BME280;10032;51.386;12.516;2023-06-19T07:20:23;99913.91;;;21.20;100.00
19748;BME280;10032;51.386;12.516;2023-06-19T07:22:51;99913.25;;;21.23;100.00
19748;BME280;10032;51.386;12.516;2023-06-19T07:25:16;99917.81;;;21.19;100.00
19748;BME280;10032;51.386;12.516;2023-06-19T07:27:43;99911.31;;;21.15;100.00
19748;BME280;10032;51.386;12.516;2023-06-19T07:30:09;99910.34;;;21.20;100.00
19748;BME280;10032;51.386;12.516;2023-06-19T07:32:36;99909.19;;;21.21;100.00
19748;BME280;10032;51.386;12.516;2023-06-19T07:35:01;99903.19;;;21.27;100.00
19748;BME280;10032;51.386;12.516;2023-06-19T07:37:27;99907.09;;;21.26;100.00
19748;BME280;10032;51.386;12.516;2023-06-19T07:39:52;99911.47;;;21.27;100.00
19748;BME280;10032;51.386;12.516;2023-06-19T07:42:19;99909.69;;;21.31;100.00
19748;BME280;10032;51.386;12.516;2023-06-19T07:44:45;99908.06;;;21.39;100.00
19748;BME280;10032;51.386;12.516;2023-06-19T07:47:11;99906.91;;;21.40;100.00
19748;BME280;10032;51.386;12.516;2023-06-19T07:49:37;99901.84;;;21.50;100.00
19748;BME280;10032;51.386;12.516;2023-06-19T07:52:03;99899.59;;;21.52;100.00
19748;BME280;10032;51.386;12.516;2023-06-19T07:54:29;99898.28;;;21.58;100.00
19748;BME280;10032;51.386;12.516;2023-06-19T07:56:55;99900.72;;;21.60;100.00
19748;BME280;10032;51.386;12.516;2023-06-19T07:59:21;99903.31;;;21.65;100.00
19748;BME280;10032;51.386;12.516;2023-06-19T08:01:46;99910.63;;;21.69;100.00
19748;BME280;10032;51.386;12.516;2023-06-19T08:04:12;99902.31;;;21.78;100.00
19748;BME280;10032;51.386;12.516;2023-06-19T08:06:37;99911.38;;;21.87;100.00
19748;BME280;10032;51.386;12.516;2023-06-19T08:09:03;99915.44;;;21.89;100.00
19748;BME280;10032;51.386;12.516;2023-06-19T08:11:28;99904.53;;;21.93;100.00
19748;BME280;10032;51.386;12.516;2023-06-19T08:13:54;99912.78;;;22.01;100.00
19748;BME280;10032;51.386;12.516;2023-06-19T08:16:19;99907.22;;;22.10;100.00
19748;BME280;10032;51.386;12.516;2023-06-19T08:18:45;99907.19;;;22.18;100.00
19748;BME280;10032;51.386;12.516;2023-06-19T08:21:11;99907.50;;;22.25;100.00
19748;BME280;10032;51.386;12.516;2023-06-19T08:23:36;99909.06;;;22.35;100.00
19748;BME280;10032;51.386;12.516;2023-06-19T08:26:04;99907.56;;;22.46;100.00
19748;BME280;10032;51.386;12.516;2023-06-19T08:28:31;99893.72;;;22.54;100.00
19748;BME280;10032;51.386;12.516;2023-06-19T08:30:57;99893.47;;;22.68;100.00
19748;BME280;10032;51.386;12.516;2023-06-19T08:33:23;99894.22;;;22.77;100.00
19748;BME280;10032;51.386;12.516;2023-06-19T08:35:48;99883.09;;;22.85;100.00
19748;BME280;10032;51.386;12.516;2023-06-19T08:38:13;99885.00;;;22.93;100.00
19748;BME280;10032;51.386;12.516;2023-06-19T08:40:43;99880.94;;;23.11;100.00
19748;BME280;10032;51.386;12.516;2023-06-19T08:43:09;99880.34;;;23.26;100.00
19748;BME280;10032;51.386;12.516;2023-06-19T08:45:34;99877.84;;;23.45;100.00
19748;BME280;10032;51.386;12.516;2023-06-19T08:48:01;99872.41;;;23.69;100.00
19748;BME280;10032;51.386;12.516;2023-06-19T08:50:31;99875.00;;;23.98;100.00
19748;BME280;10032;51.386;12.516;2023-06-19T08:52:57;99892.56;;;24.14;100.00
19748;BME280;10032;51.386;12.516;2023-06-19T08:55:23;99898.69;;;24.32;100.00
19748;BME280;10032;51.386;12.516;2023-06-19T08:57:49;99905.84;;;24.45;100.00
19748;BME280;10032;51.386;12.516;2023-06-19T09:00:29;99903.75;;;24.54;100.00
19748;BME280;10032;51.386;12.516;2023-06-19T09:03:02;99903.88;;;24.69;100.00
19748;BME280;10032;51.386;12.516;2023-06-19T09:05:28;99900.31;;;24.81;100.00
19748;BME280;10032;51.386;12.516;2023-06-19T09:07:55;99890.44;;;24.95;100.00
19748;BME280;10032;51.386;12.516;2023-06-19T09:10:21;99903.56;;;25.10;100.00
19748;BME280;10032;51.386;12.516;2023-06-19T09:13:03;99885.84;;;25.27;100.00
19748;BME280;10032;51.386;12.516;2023-06-19T09:15:34;99885.09;;;25.42;100.00
19748;BME280;10032;51.386;12.516;2023-06-19T09:18:01;99888.63;;;25.54;100.00
19748;BME280;10032;51.386;12.516;2023-06-19T09:20:28;99876.00;;;25.72;100.00
19748;BME280;10032;51.386;12.516;2023-06-19T09:22:57;99874.00;;;26.00;100.00
19748;BME280;10032;51.386;12.516;2023-06-19T09:25:23;99876.31;;;26.45;100.00
19748;BME280;10032;51.386;12.516;2023-06-19T09:27:50;99881.63;;;27.03;100.00
19748;BME280;10032;51.386;12.516;2023-06-19T09:30:16;99870.53;;;27.41;100.00
19748;BME280;10032;51.386;12.516;2023-06-19T09:32:41;99873.88;;;27.50;98.74
19748;BME280;10032;51.386;12.516;2023-06-19T09:35:07;99869.06;;;27.47;92.05
19748;BME280;10032;51.386;12.516;2023-06-19T09:37:32;99871.53;;;27.52;92.88
19748;BME280;10032;51.386;12.516;2023-06-19T09:40:00;99859.94;;;27.69;92.07
19748;BME280;10032;51.386;12.516;2023-06-19T09:42:27;99859.91;;;28.11;90.95
19748;BME280;10032;51.386;12.516;2023-06-19T09:44:59;99855.06;;;28.56;88.38
19748;BME280;10032;51.386;12.516;2023-06-19T09:47:30;99854.44;;;28.96;85.54
19748;BME280;10032;51.386;12.516;2023-06-19T09:49:56;99848.84;;;29.25;82.16
19748;BME280;10032;51.386;12.516;2023-06-19T09:52:23;99851.75;;;29.32;76.86
19748;BME280;10032;51.386;12.516;2023-06-19T09:54:52;99842.38;;;29.51;75.84
19748;BME280;10032;51.386;12.516;2023-06-19T09:57:19;99840.69;;;29.79;73.47
19748;BME280;10032;51.386;12.516;2023-06-19T09:59:53;99846.38;;;29.90;67.19
19748;BME280;10032;51.386;12.516;2023-06-19T10:02:20;99845.69;;;30.00;66.07
19748;BME280;10032;51.386;12.516;2023-06-19T10:04:49;99852.91;;;30.08;64.56
19748;BME280;10032;51.386;12.516;2023-06-19T10:07:19;99847.66;;;29.99;61.79
19748;BME280;10032;51.386;12.516;2023-06-19T10:12:54;99852.59;;;29.69;57.57
19748;BME280;10032;51.386;12.516;2023-06-19T10:15:21;99861.44;;;29.78;57.92
19748;BME280;10032;51.386;12.516;2023-06-19T10:17:49;99855.16;;;29.88;56.29
19748;BME280;10032;51.386;12.516;2023-06-19T10:20:34;99854.78;;;29.93;55.58
19748;BME280;10032;51.386;12.516;2023-06-19T10:25:30;99849.75;;;30.09;54.72
19748;BME280;10032;51.386;12.516;2023-06-19T10:27:57;99856.63;;;30.19;54.95
19748;BME280;10032;51.386;12.516;2023-06-19T10:30:23;99855.13;;;30.28;53.59
19748;BME280;10032;51.386;12.516;2023-06-19T10:32:49;99852.91;;;30.51;52.43
19748;BME280;10032;51.386;12.516;2023-06-19T10:35:16;99852.81;;;31.05;52.42
19748;BME280;10032;51.386;12.516;2023-06-19T10:37:42;99853.44;;;31.53;52.14
19748;BME280;10032;51.386;12.516;2023-06-19T10:40:08;99852.63;;;31.56;50.29
19748;BME280;10032;51.386;12.516;2023-06-19T10:42:36;99838.63;;;31.52;49.16
19748;BME280;10032;51.386;12.516;2023-06-19T10:45:03;99839.00;;;31.47;48.24
19748;BME280;10032;51.386;12.516;2023-06-19T10:47:29;99839.00;;;31.40;47.95
19748;BME280;10032;51.386;12.516;2023-06-19T10:49:55;99841.84;;;31.68;48.57
19748;BME280;10032;51.386;12.516;2023-06-19T10:52:20;99837.91;;;32.01;47.28
19748;BME280;10032;51.386;12.516;2023-06-19T10:54:45;99832.34;;;32.25;46.90
19748;BME280;10032;51.386;12.516;2023-06-19T10:57:11;99824.28;;;32.45;46.77
19748;BME280;10032;51.386;12.516;2023-06-19T10:59:38;99831.13;;;32.37;45.93
19748;BME280;10032;51.386;12.516;2023-06-19T11:02:05;99829.13;;;32.27;44.78
19748;BME280;10032;51.386;12.516;2023-06-19T11:04:31;99823.13;;;32.28;44.19
19748;BME280;10032;51.386;12.516;2023-06-19T11:07:04;99814.72;;;32.28;43.82
19748;BME280;10032;51.386;12.516;2023-06-19T11:09:30;99820.63;;;32.79;44.50
19748;BME280;10032;51.386;12.516;2023-06-19T11:11:56;99822.50;;;33.17;44.02
19748;BME280;10032;51.386;12.516;2023-06-19T11:14:21;99824.06;;;33.25;43.42
19748;BME280;10032;51.386;12.516;2023-06-19T11:16:47;99826.16;;;33.07;42.96
19748;BME280;10032;51.386;12.516;2023-06-19T11:19:18;99831.81;;;32.97;42.43
19748;BME280;10032;51.386;12.516;2023-06-19T11:21:49;99822.56;;;33.00;41.71
19748;BME280;10032;51.386;12.516;2023-06-19T11:24:15;99830.22;;;32.92;42.50
19748;BME280;10032;51.386;12.516;2023-06-19T11:26:42;99828.59;;;32.95;41.91
19748;BME280;10032;51.386;12.516;2023-06-19T11:29:19;99823.03;;;32.63;41.88
19748;BME280;10032;51.386;12.516;2023-06-19T11:31:46;99824.63;;;32.64;41.80
19748;BME280;10032;51.386;12.516;2023-06-19T11:34:12;99823.47;;;32.65;41.92
19748;BME280;10032;51.386;12.516;2023-06-19T11:36:42;99829.00;;;32.93;41.90
19748;BME280;10032;51.386;12.516;2023-06-19T11:39:14;99832.56;;;33.04;42.01
19748;BME280;10032;51.386;12.516;2023-06-19T11:41:42;99828.22;;;32.89;41.49
19748;BME280;10032;51.386;12.516;2023-06-19T11:44:08;99831.47;;;32.77;41.39
19748;BME280;10032;51.386;12.516;2023-06-19T11:46:37;99836.19;;;33.05;41.82
19748;BME280;10032;51.386;12.516;2023-06-19T11:51:37;99841.22;;;33.48;41.46
19748;BME280;10032;51.386;12.516;2023-06-19T11:54:06;99836.63;;;33.72;40.96
19748;BME280;10032;51.386;12.516;2023-06-19T11:56:32;99839.81;;;33.84;40.50
19748;BME280;10032;51.386;12.516;2023-06-19T11:58:58;99837.44;;;33.79;40.33
19748;BME280;10032;51.386;12.516;2023-06-19T12:01:23;99840.66;;;33.81;40.04
19748;BME280;10032;51.386;12.516;2023-06-19T12:03:48;99840.44;;;34.06;40.13
19748;BME280;10032;51.386;12.516;2023-06-19T12:06:16;99842.72;;;34.21;40.59
19748;BME280;10032;51.386;12.516;2023-06-19T12:08:42;99831.41;;;34.32;39.97
19748;BME280;10032;51.386;12.516;2023-06-19T12:11:08;99826.34;;;34.53;40.19
19748;BME280;10032;51.386;12.516;2023-06-19T12:13:35;99816.19;;;34.66;39.68
19748;BME280;10032;51.386;12.516;2023-06-19T12:16:01;99824.47;;;34.80;39.47
19748;BME280;10032;51.386;12.516;2023-06-19T12:18:27;99817.72;;;35.08;38.61
19748;BME280;10032;51.386;12.516;2023-06-19T12:20:52;99815.19;;;34.83;38.61
19748;BME280;10032;51.386;12.516;2023-06-19T12:23:17;99813.88;;;34.91;38.34
19748;BME280;10032;51.386;12.516;2023-06-19T12:25:44;99822.84;;;34.83;37.89
19748;BME280;10032;51.386;12.516;2023-06-19T12:28:09;99819.25;;;34.82;37.96
19748;BME280;10032;51.386;12.516;2023-06-19T12:30:36;99825.16;;;34.91;36.60
19748;BME280;10032;51.386;12.516;2023-06-19T12:33:02;99817.88;;;34.94;36.89
19748;BME280;10032;51.386;12.516;2023-06-19T12:35:29;99824.53;;;35.10;37.17
19748;BME280;10032;51.386;12.516;2023-06-19T12:37:55;99822.34;;;35.21;37.63
19748;BME280;10032;51.386;12.516;2023-06-19T12:40:20;99820.66;;;35.31;37.52
19748;BME280;10032;51.386;12.516;2023-06-19T12:42:46;99821.69;;;35.44;36.92
19748;BME280;10032;51.386;12.516;2023-06-19T12:45:11;99823.13;;;35.55;37.52
19748;BME280;10032;51.386;12.516;2023-06-19T12:47:37;99815.22;;;35.73;36.60
19748;BME280;10032;51.386;12.516;2023-06-19T12:50:03;99817.50;;;35.82;36.75